sensor_id;sensor_type;location;lat;lon;timestamp;pressure;altitude;pressure_sealevel;temperature;humidity
59757;BME280;45631;51.962;5.974;2022-09-02T00:02:16;101641.19;;;16.73;52.57
59757;BME280;45631;51.962;5.974;2022-09-02T00:04:44;101639.03;;;16.79;52.80
59757;BME280;45631;51.962;5.974;2022-09-02T00:07:12;101638.41;;;16.75;52.87
59757;BME280;45631;51.962;5.974;2022-09-02T00:09:41;101643.84;;;16.73;52.58
59757;BME280;45631;51.962;5.974;2022-09-02T00:12:09;101639.38;;;16.63;53.21
59757;BME280;45631;51.962;5.974;2022-09-02T00:14:38;101646.75;;;16.59;53.42
59757;BME280;45631;51.962;5.974;2022-09-02T00:17:07;101636.38;;;16.56;53.42
59757;BME280;45631;51.962;5.974;2022-09-02T00:19:35;101627.06;;;16.50;53.82
59757;BME280;45631;51.962;5.974;2022-09-02T00:22:04;101632.25;;;16.52;53.68
59757;BME280;45631;51.962;5.974;2022-09-02T00:24:33;101627.19;;;16.49;54.14
59757;BME280;45631;51.962;5.974;2022-09-02T00:27:01;101628.91;;;16.50;53.95
59757;BME280;45631;51.962;5.974;2022-09-02T00:29:30;101623.09;;;16.45;54.71
59757;BME280;45631;51.962;5.974;2022-09-02T00:31:58;101622.13;;;16.46;54.58
59757;BME280;45631;51.962;5.974;2022-09-02T00:34:28;101625.13;;;16.41;54.88
59757;BME280;45631;51.962;5.974;2022-09-02T00:36:56;101624.03;;;16.44;54.43
59757;BME280;45631;51.962;5.974;2022-09-02T00:39:24;101622.47;;;16.41;55.08
59757;BME280;45631;51.962;5.974;2022-09-02T00:41:52;101619.56;;;16.44;54.48
59757;BME280;45631;51.962;5.974;2022-09-02T00:44:21;101618.50;;;16.35;55.27
59757;BME280;45631;51.962;5.974;2022-09-02T00:46:49;101618.75;;;16.32;55.21
59757;BME280;45631;51.962;5.974;2022-09-02T00:49:20;101611.03;;;16.29;55.04
59757;BME280;45631;51.962;5.974;2022-09-02T00:51:56;101607.13;;;16.22;55.43
59757;BME280;45631;51.962;5.974;2022-09-02T00:54:27;101607.25;;;16.20;55.57
59757;BME280;45631;51.962;5.974;2022-09-02T00:56:57;101609.28;;;16.17;56.03
59757;BME280;45631;51.962;5.974;2022-09-02T00:59:37;101605.09;;;16.14;55.91
59757;BME280;45631;51.962;5.974;2022-09-02T01:02:08;101609.19;;;16.18;56.26
59757;BME280;45631;51.962;5.974;2022-09-02T01:04:37;101605.28;;;16.11;56.67
59757;BME280;45631;51.962;5.974;2022-09-02T01:07:06;101611.47;;;16.12;56.80
59757;BME280;45631;51.962;5.974;2022-09-02T01:09:35;101602.44;;;16.14;56.94
59757;BME280;45631;51.962;5.974;2022-09-02T01:12:04;101598.19;;;16.12;57.42
59757;BME280;45631;51.962;5.974;2022-09-02T01:14:32;101598.31;;;16.10;57.13
59757;BME280;45631;51.962;5.974;2022-09-02T01:17:01;101603.50;;;16.12;57.31
59757;BME280;45631;51.962;5.974;2022-09-02T01:19:34;101596.63;;;16.09;57.14
59757;BME280;45631;51.962;5.974;2022-09-02T01:22:14;101604.81;;;16.06;57.52
59757;BME280;45631;51.962;5.974;2022-09-02T01:24:43;101601.56;;;16.02;57.15
59757;BME280;45631;51.962;5.974;2022-09-02T01:27:14;101606.97;;;16.01;56.82
59757;BME280;45631;51.962;5.974;2022-09-02T01:29:43;101606.75;;;16.04;57.33
59757;BME280;45631;51.962;5.974;2022-09-02T01:32:12;101599.63;;;16.04;57.16
59757;BME280;45631;51.962;5.974;2022-09-02T01:34:40;101599.03;;;16.01;56.90
59757;BME280;45631;51.962;5.974;2022-09-02T01:37:10;101590.72;;;16.17;56.44
59757;BME280;45631;51.962;5.974;2022-09-02T01:39:38;101603.13;;;16.05;56.86
59757;BME280;45631;51.962;5.974;2022-09-02T01:42:06;101597.19;;;16.01;56.64
59757;BME280;45631;51.962;5.974;2022-09-02T01:44:35;101594.06;;;15.96;56.94
59757;BME280;45631;51.962;5.974;2022-09-02T01:47:09;101597.44;;;15.98;56.74
59757;BME280;45631;51.962;5.974;2022-09-02T01:49:37;101585.75;;;16.01;57.11
59757;BME280;45631;51.962;5.974;2022-09-02T01:52:07;101582.97;;;16.02;57.17
59757;BME280;45631;51.962;5.974;2022-09-02T01:54:37;101582.97;;;16.02;56.91
59757;BME280;45631;51.962;5.974;2022-09-02T01:57:05;101587.53;;;16.00;56.55
59757;BME280;45631;51.962;5.974;2022-09-02T01:59:33;101585.88;;;15.99;56.79
59757;BME280;45631;51.962;5.974;2022-09-02T02:02:02;101584.03;;;15.88;56.93
59757;BME280;45631;51.962;5.974;2022-09-02T02:04:30;101580.78;;;15.96;56.62
59757;BME280;45631;51.962;5.974;2022-09-02T02:06:59;101583.19;;;15.88;56.87
59757;BME280;45631;51.962;5.974;2022-09-02T02:09:27;101581.66;;;15.97;56.81
59757;BME280;45631;51.962;5.974;2022-09-02T02:11:56;101585.75;;;16.01;56.89
59757;BME280;45631;51.962;5.974;2022-09-02T02:14:24;101587.41;;;15.91;57.24
59757;BME280;45631;51.962;5.974;2022-09-02T02:16:52;101591.63;;;15.93;57.42
59757;BME280;45631;51.962;5.974;2022-09-02T02:19:20;101588.97;;;15.93;57.32
59757;BME280;45631;51.962;5.974;2022-09-02T02:21:49;101587.78;;;15.97;56.56
59757;BME280;45631;51.962;5.974;2022-09-02T02:24:17;101581.16;;;15.92;56.84
59757;BME280;45631;51.962;5.974;2022-09-02T02:26:46;101576.56;;;15.94;56.89
59757;BME280;45631;51.962;5.974;2022-09-02T02:29:18;101581.03;;;15.93;57.23
59757;BME280;45631;51.962;5.974;2022-09-02T02:31:46;101568.59;;;15.94;56.87
59757;BME280;45631;51.962;5.974;2022-09-02T02:34:14;101581.97;;;15.92;57.38
59757;BME280;45631;51.962;5.974;2022-09-02T02:36:42;101569.59;;;15.93;57.21
59757;BME280;45631;51.962;5.974;2022-09-02T02:39:12;101581.72;;;15.84;57.69
59757;BME280;45631;51.962;5.974;2022-09-02T02:41:40;101581.19;;;15.79;57.24
59757;BME280;45631;51.962;5.974;2022-09-02T02:44:10;101574.50;;;15.86;57.58
59757;BME280;45631;51.962;5.974;2022-09-02T02:46:42;101578.47;;;15.80;56.85
59757;BME280;45631;51.962;5.974;2022-09-02T02:49:10;101580.16;;;15.81;56.00
59757;BME280;45631;51.962;5.974;2022-09-02T02:51:45;101582.47;;;15.86;56.27
59757;BME280;45631;51.962;5.974;2022-09-02T02:54:13;101580.78;;;15.85;56.28
59757;BME280;45631;51.962;5.974;2022-09-02T02:56:42;101576.53;;;15.82;56.76
59757;BME280;45631;51.962;5.974;2022-09-02T02:59:10;101584.69;;;15.79;56.47
59757;BME280;45631;51.962;5.974;2022-09-02T03:01:38;101586.50;;;15.79;56.30
59757;BME280;45631;51.962;5.974;2022-09-02T03:04:07;101575.72;;;15.82;56.52
59757;BME280;45631;51.962;5.974;2022-09-02T03:06:36;101576.13;;;15.76;56.62
59757;BME280;45631;51.962;5.974;2022-09-02T03:09:04;101576.53;;;15.82;55.82
59757;BME280;45631;51.962;5.974;2022-09-02T03:11:32;101571.56;;;15.78;56.49
59757;BME280;45631;51.962;5.974;2022-09-02T03:14:00;101572.31;;;15.80;55.96
59757;BME280;45631;51.962;5.974;2022-09-02T03:16:29;101569.66;;;15.80;56.21
59757;BME280;45631;51.962;5.974;2022-09-02T03:18:57;101567.94;;;15.79;56.02
59757;BME280;45631;51.962;5.974;2022-09-02T03:21:27;101565.50;;;15.76;56.58
59757;BME280;45631;51.962;5.974;2022-09-02T03:24:05;101572.50;;;15.77;56.36
59757;BME280;45631;51.962;5.974;2022-09-02T03:26:33;101571.34;;;15.81;56.18
59757;BME280;45631;51.962;5.974;2022-09-02T03:29:02;101569.03;;;15.76;56.15
59757;BME280;45631;51.962;5.974;2022-09-02T03:31:30;101569.25;;;15.73;56.22
59757;BME280;45631;51.962;5.974;2022-09-02T03:33:58;101565.75;;;15.72;56.39
59757;BME280;45631;51.962;5.974;2022-09-02T03:36:31;101562.88;;;15.76;56.23
59757;BME280;45631;51.962;5.974;2022-09-02T03:39:00;101563.81;;;15.75;56.23
59757;BME280;45631;51.962;5.974;2022-09-02T03:41:28;101565.75;;;15.72;56.51
59757;BME280;45631;51.962;5.974;2022-09-02T03:43:57;101558.16;;;15.68;56.50
59757;BME280;45631;51.962;5.974;2022-09-02T03:46:25;101554.75;;;15.66;56.81
59757;BME280;45631;51.962;5.974;2022-09-02T03:48:53;101555.59;;;15.66;56.71
59757;BME280;45631;51.962;5.974;2022-09-02T03:51:22;101555.72;;;15.65;56.55
59757;BME280;45631;51.962;5.974;2022-09-02T03:53:52;101555.22;;;15.60;56.53
59757;BME280;45631;51.962;5.974;2022-09-02T03:56:21;101547.88;;;15.63;56.75
59757;BME280;45631;51.962;5.974;2022-09-02T03:58:51;101548.25;;;15.59;56.54
59757;BME280;45631;51.962;5.974;2022-09-02T04:01:21;101549.31;;;15.56;56.73
59757;BME280;45631;51.962;5.974;2022-09-02T04:03:54;101545.22;;;15.63;56.62
59757;BME280;45631;51.962;5.974;2022-09-02T04:06:23;101529.94;;;15.67;56.36
59757;BME280;45631;51.962;5.974;2022-09-02T04:09:00;101541.50;;;15.66;56.45
59757;BME280;45631;51.962;5.974;2022-09-02T04:11:28;101538.03;;;15.65;56.66
59757;BME280;45631;51.962;5.974;2022-09-02T04:13:57;101535.31;;;15.54;56.95
59757;BME280;45631;51.962;5.974;2022-09-02T04:16:25;101547.97;;;15.50;57.43
59757;BME280;45631;51.962;5.974;2022-09-02T04:18:55;101542.06;;;15.58;56.93
59757;BME280;45631;51.962;5.974;2022-09-02T04:21:24;101540.16;;;15.60;56.48
59757;BME280;45631;51.962;5.974;2022-09-02T04:23:54;101536.91;;;15.57;56.86
59757;BME280;45631;51.962;5.974;2022-09-02T04:26:25;101542.28;;;15.44;57.47
59757;BME280;45631;51.962;5.974;2022-09-02T04:28:53;101540.22;;;15.47;57.83
59757;BME280;45631;51.962;5.974;2022-09-02T04:31:23;101536.38;;;15.51;57.36
59757;BME280;45631;51.962;5.974;2022-09-02T04:33:52;101534.09;;;15.47;57.42
59757;BME280;45631;51.962;5.974;2022-09-02T04:36:21;101524.44;;;15.46;57.51
59757;BME280;45631;51.962;5.974;2022-09-02T04:38:50;101534.09;;;15.47;57.97
59757;BME280;45631;51.962;5.974;2022-09-02T04:41:20;101529.03;;;15.44;57.91
59757;BME280;45631;51.962;5.974;2022-09-02T04:43:53;101527.78;;;15.36;58.02
59757;BME280;45631;51.962;5.974;2022-09-02T04:46:22;101535.97;;;15.33;57.98
59757;BME280;45631;51.962;5.974;2022-09-02T04:49:00;101528.88;;;15.34;57.83
59757;BME280;45631;51.962;5.974;2022-09-02T04:51:28;101523.66;;;15.32;58.19
59757;BME280;45631;51.962;5.974;2022-09-02T04:53:57;101526.03;;;15.24;58.69
59757;BME280;45631;51.962;5.974;2022-09-02T04:56:28;101528.09;;;15.20;58.68
59757;BME280;45631;51.962;5.974;2022-09-02T04:58:58;101531.69;;;15.19;58.71
59757;BME280;45631;51.962;5.974;2022-09-02T05:01:29;101531.06;;;15.16;59.21
59757;BME280;45631;51.962;5.974;2022-09-02T05:03:59;101529.88;;;15.20;58.96
59757;BME280;45631;51.962;5.974;2022-09-02T05:06:28;101523.47;;;15.11;60.00
59757;BME280;45631;51.962;5.974;2022-09-02T05:08:58;101524.53;;;15.09;59.79
59757;BME280;45631;51.962;5.974;2022-09-02T05:11:30;101526.63;;;15.16;59.20
59757;BME280;45631;51.962;5.974;2022-09-02T05:14:02;101522.91;;;15.19;59.32
59757;BME280;45631;51.962;5.974;2022-09-02T05:16:35;101523.88;;;15.18;59.29
59757;BME280;45631;51.962;5.974;2022-09-02T05:19:06;101532.75;;;15.17;59.95
59757;BME280;45631;51.962;5.974;2022-09-02T05:21:38;101529.41;;;15.15;60.00
59757;BME280;45631;51.962;5.974;2022-09-02T05:24:07;101531.06;;;15.16;59.66
59757;BME280;45631;51.962;5.974;2022-09-02T05:26:35;101531.31;;;15.13;60.34
59757;BME280;45631;51.962;5.974;2022-09-02T05:29:05;101526.13;;;15.11;60.26
59757;BME280;45631;51.962;5.974;2022-09-02T05:31:34;101527.94;;;15.11;59.98
59757;BME280;45631;51.962;5.974;2022-09-02T05:34:02;101526.00;;;15.13;61.22
59757;BME280;45631;51.962;5.974;2022-09-02T05:36:30;101528.34;;;15.17;60.71
59757;BME280;45631;51.962;5.974;2022-09-02T05:38:59;101520.88;;;15.23;60.36
59757;BME280;45631;51.962;5.974;2022-09-02T05:41:28;101528.97;;;15.32;59.84
59757;BME280;45631;51.962;5.974;2022-09-02T05:43:58;101534.78;;;15.37;60.08
59757;BME280;45631;51.962;5.974;2022-09-02T05:46:30;101529.72;;;15.34;59.84
59757;BME280;45631;51.962;5.974;2022-09-02T05:48:58;101531.06;;;15.40;59.54
59757;BME280;45631;51.962;5.974;2022-09-02T05:51:37;101530.72;;;15.45;59.93
59757;BME280;45631;51.962;5.974;2022-09-02T05:54:09;101529.75;;;15.46;59.69
59757;BME280;45631;51.962;5.974;2022-09-02T05:56:39;101532.78;;;15.52;59.80
59757;BME280;45631;51.962;5.974;2022-09-02T05:59:11;101532.66;;;15.54;59.39
59757;BME280;45631;51.962;5.974;2022-09-02T06:01:41;101535.09;;;15.57;60.06
59757;BME280;45631;51.962;5.974;2022-09-02T06:04:10;101531.75;;;15.66;58.89
59757;BME280;45631;51.962;5.974;2022-09-02T06:06:39;101523.78;;;15.66;59.11
59757;BME280;45631;51.962;5.974;2022-09-02T06:09:11;101530.06;;;15.65;59.64
59757;BME280;45631;51.962;5.974;2022-09-02T06:11:41;101521.75;;;15.70;59.99
59757;BME280;45631;51.962;5.974;2022-09-02T06:14:13;101523.34;;;15.72;59.26
59757;BME280;45631;51.962;5.974;2022-09-02T06:16:43;101526.59;;;15.76;59.03
59757;BME280;45631;51.962;5.974;2022-09-02T06:19:12;101525.03;;;15.74;59.33
59757;BME280;45631;51.962;5.974;2022-09-02T06:21:46;101532.00;;;15.75;60.01
59757;BME280;45631;51.962;5.974;2022-09-02T06:24:15;101536.72;;;15.71;59.32
59757;BME280;45631;51.962;5.974;2022-09-02T06:26:43;101530.22;;;15.75;59.18
59757;BME280;45631;51.962;5.974;2022-09-02T06:29:11;101526.16;;;15.82;59.15
59757;BME280;45631;51.962;5.974;2022-09-02T06:31:44;101525.19;;;15.83;59.06
59757;BME280;45631;51.962;5.974;2022-09-02T06:34:13;101523.16;;;15.87;59.75
59757;BME280;45631;51.962;5.974;2022-09-02T06:36:44;101527.03;;;15.94;60.01
59757;BME280;45631;51.962;5.974;2022-09-02T06:39:16;101531.72;;;16.02;59.47
59757;BME280;45631;51.962;5.974;2022-09-02T06:41:45;101531.25;;;16.08;59.11
59757;BME280;45631;51.962;5.974;2022-09-02T06:44:15;101527.03;;;16.17;59.11
59757;BME280;45631;51.962;5.974;2022-09-02T06:46:47;101519.19;;;16.38;58.07
59757;BME280;45631;51.962;5.974;2022-09-02T06:49:20;101518.22;;;16.50;57.79
59757;BME280;45631;51.962;5.974;2022-09-02T06:51:50;101519.41;;;16.58;57.42
59757;BME280;45631;51.962;5.974;2022-09-02T06:54:20;101513.97;;;16.59;57.52
59757;BME280;45631;51.962;5.974;2022-09-02T06:56:49;101516.97;;;16.66;57.66
59757;BME280;45631;51.962;5.974;2022-09-02T06:59:18;101513.25;;;16.80;57.44
59757;BME280;45631;51.962;5.974;2022-09-02T07:01:48;101511.25;;;17.04;56.83
59757;BME280;45631;51.962;5.974;2022-09-02T07:04:17;101515.94;;;17.12;55.32
59757;BME280;45631;51.962;5.974;2022-09-02T07:07:03;101509.22;;;17.29;55.16
59757;BME280;45631;51.962;5.974;2022-09-02T07:09:32;101512.41;;;17.44;54.71
59757;BME280;45631;51.962;5.974;2022-09-02T07:12:01;101505.66;;;17.61;54.62
59757;BME280;45631;51.962;5.974;2022-09-02T07:14:35;101511.56;;;17.86;54.64
59757;BME280;45631;51.962;5.974;2022-09-02T07:17:06;101507.75;;;18.00;53.52
59757;BME280;45631;51.962;5.974;2022-09-02T07:19:35;101511.72;;;18.05;53.07
59757;BME280;45631;51.962;5.974;2022-09-02T07:22:05;101504.19;;;18.11;52.55
59757;BME280;45631;51.962;5.974;2022-09-02T07:24:34;101497.53;;;18.36;53.04
59757;BME280;45631;51.962;5.974;2022-09-02T07:27:05;101502.50;;;18.60;52.43
59757;BME280;45631;51.962;5.974;2022-09-02T07:29:33;101501.84;;;18.78;50.83
59757;BME280;45631;51.962;5.974;2022-09-02T07:32:04;101504.81;;;18.84;51.08
59757;BME280;45631;51.962;5.974;2022-09-02T07:34:33;101501.06;;;19.06;50.88
59757;BME280;45631;51.962;5.974;2022-09-02T07:37:01;101505.56;;;19.25;50.94
59757;BME280;45631;51.962;5.974;2022-09-02T07:39:36;101501.88;;;19.46;49.54
59757;BME280;45631;51.962;5.974;2022-09-02T07:42:05;101505.78;;;19.62;49.63
59757;BME280;45631;51.962;5.974;2022-09-02T07:44:33;101504.38;;;19.67;49.21
59757;BME280;45631;51.962;5.974;2022-09-02T07:47:06;101509.56;;;19.88;49.80
59757;BME280;45631;51.962;5.974;2022-09-02T07:49:38;101501.47;;;20.08;48.63
59757;BME280;45631;51.962;5.974;2022-09-02T07:52:26;101495.25;;;20.17;47.12
59757;BME280;45631;51.962;5.974;2022-09-02T07:54:54;101495.28;;;20.45;48.49
59757;BME280;45631;51.962;5.974;2022-09-02T07:57:23;101486.53;;;20.71;47.08
59757;BME280;45631;51.962;5.974;2022-09-02T07:59:51;101488.31;;;20.80;46.21
59757;BME280;45631;51.962;5.974;2022-09-02T08:02:21;101488.41;;;20.88;46.10
59757;BME280;45631;51.962;5.974;2022-09-02T08:04:49;101491.91;;;21.07;45.09
59757;BME280;45631;51.962;5.974;2022-09-02T08:07:17;101486.25;;;21.28;45.79
59757;BME280;45631;51.962;5.974;2022-09-02T08:09:50;101491.53;;;21.38;44.20
59757;BME280;45631;51.962;5.974;2022-09-02T08:12:18;101489.34;;;21.41;44.60
59757;BME280;45631;51.962;5.974;2022-09-02T08:14:48;101488.44;;;21.51;43.43
59757;BME280;45631;51.962;5.974;2022-09-02T08:17:16;101482.72;;;21.72;43.55
59757;BME280;45631;51.962;5.974;2022-09-02T08:19:46;101483.63;;;21.81;43.48
59757;BME280;45631;51.962;5.974;2022-09-02T08:22:14;101487.75;;;22.01;43.62
59757;BME280;45631;51.962;5.974;2022-09-02T08:24:42;101484.16;;;22.19;43.68
59757;BME280;45631;51.962;5.974;2022-09-02T08:27:10;101487.31;;;22.49;42.87
59757;BME280;45631;51.962;5.974;2022-09-02T08:29:39;101476.28;;;22.68;42.76
59757;BME280;45631;51.962;5.974;2022-09-02T08:32:07;101483.38;;;22.86;42.19
59757;BME280;45631;51.962;5.974;2022-09-02T08:34:35;101474.97;;;22.89;41.73
59757;BME280;45631;51.962;5.974;2022-09-02T08:37:05;101473.34;;;22.96;41.87
59757;BME280;45631;51.962;5.974;2022-09-02T08:39:33;101473.53;;;23.19;41.93
59757;BME280;45631;51.962;5.974;2022-09-02T08:42:07;101482.38;;;23.11;41.74
59757;BME280;45631;51.962;5.974;2022-09-02T08:44:39;101474.03;;;23.23;41.19
59757;BME280;45631;51.962;5.974;2022-09-02T08:47:12;101470.69;;;23.21;41.73
59757;BME280;45631;51.962;5.974;2022-09-02T08:49:45;101468.34;;;23.34;41.87
59757;BME280;45631;51.962;5.974;2022-09-02T08:52:22;101467.97;;;23.54;41.00
59757;BME280;45631;51.962;5.974;2022-09-02T08:54:55;101455.81;;;23.74;40.11
59757;BME280;45631;51.962;5.974;2022-09-02T08:57:23;101459.31;;;23.83;40.05
59757;BME280;45631;51.962;5.974;2022-09-02T08:59:53;101454.31;;;23.88;40.78
59757;BME280;45631;51.962;5.974;2022-09-02T09:02:28;101450.28;;;24.24;40.32
59757;BME280;45631;51.962;5.974;2022-09-02T09:05:11;101449.03;;;24.03;39.33
59757;BME280;45631;51.962;5.974;2022-09-02T09:07:55;101450.28;;;24.24;39.77
59757;BME280;45631;51.962;5.974;2022-09-02T09:10:32;101439.31;;;24.34;38.96
59757;BME280;45631;51.962;5.974;2022-09-02T09:13:16;101444.63;;;24.50;39.04
59757;BME280;45631;51.962;5.974;2022-09-02T09:15:53;101453.97;;;24.62;38.83
59757;BME280;45631;51.962;5.974;2022-09-02T09:18:29;101443.53;;;24.59;38.84
59757;BME280;45631;51.962;5.974;2022-09-02T09:21:00;101446.91;;;24.85;38.87
59757;BME280;45631;51.962;5.974;2022-09-02T09:23:35;101449.38;;;24.94;38.82
59757;BME280;45631;51.962;5.974;2022-09-02T09:26:06;101441.03;;;25.04;38.12
59757;BME280;45631;51.962;5.974;2022-09-02T09:28:40;101438.84;;;24.85;37.99
59757;BME280;45631;51.962;5.974;2022-09-02T09:31:11;101437.03;;;25.00;38.39
59757;BME280;45631;51.962;5.974;2022-09-02T09:33:54;101443.25;;;25.24;37.74
59757;BME280;45631;51.962;5.974;2022-09-02T09:36:46;101429.31;;;25.20;38.46
59757;BME280;45631;51.962;5.974;2022-09-02T09:39:28;101434.78;;;25.27;37.17
59757;BME280;45631;51.962;5.974;2022-09-02T09:41:58;101436.38;;;25.21;38.18
59757;BME280;45631;51.962;5.974;2022-09-02T09:44:36;101433.56;;;25.14;39.02
59757;BME280;45631;51.962;5.974;2022-09-02T09:47:06;101431.25;;;25.26;38.78
59757;BME280;45631;51.962;5.974;2022-09-02T09:49:40;101421.41;;;25.57;37.41
59757;BME280;45631;51.962;5.974;2022-09-02T09:52:21;101419.72;;;25.56;38.42
59757;BME280;45631;51.962;5.974;2022-09-02T09:55:06;101421.75;;;25.69;37.17
59757;BME280;45631;51.962;5.974;2022-09-02T09:57:34;101409.41;;;25.74;37.51
59757;BME280;45631;51.962;5.974;2022-09-02T10:00:10;101413.19;;;26.10;37.79
59757;BME280;45631;51.962;5.974;2022-09-02T10:02:46;101410.66;;;26.23;36.78
59757;BME280;45631;51.962;5.974;2022-09-02T10:05:35;101410.28;;;26.26;37.00
59757;BME280;45631;51.962;5.974;2022-09-02T10:08:06;101403.88;;;26.49;36.95
59757;BME280;45631;51.962;5.974;2022-09-02T10:10:56;101415.88;;;26.68;36.40
59757;BME280;45631;51.962;5.974;2022-09-02T10:13:27;101409.00;;;26.87;36.97
59757;BME280;45631;51.962;5.974;2022-09-02T10:16:12;101404.47;;;26.88;36.71
59757;BME280;45631;51.962;5.974;2022-09-02T10:18:47;101402.50;;;27.03;35.81
59757;BME280;45631;51.962;5.974;2022-09-02T10:21:28;101409.00;;;27.09;36.13
59757;BME280;45631;51.962;5.974;2022-09-02T10:24:03;101402.78;;;27.37;35.56
59757;BME280;45631;51.962;5.974;2022-09-02T10:26:40;101399.56;;;27.55;35.24
59757;BME280;45631;51.962;5.974;2022-09-02T10:29:31;101397.66;;;27.48;34.31
59757;BME280;45631;51.962;5.974;2022-09-02T10:32:21;101396.09;;;27.32;34.55
59757;BME280;45631;51.962;5.974;2022-09-02T10:35:00;101393.13;;;27.27;34.81
59757;BME280;45631;51.962;5.974;2022-09-02T10:37:36;101395.19;;;27.54;35.07
59757;BME280;45631;51.962;5.974;2022-09-02T10:40:10;101383.16;;;27.56;35.53
59757;BME280;45631;51.962;5.974;2022-09-02T10:42:50;101381.09;;;28.07;33.69
59757;BME280;45631;51.962;5.974;2022-09-02T10:45:30;101368.69;;;28.26;34.25
59757;BME280;45631;51.962;5.974;2022-09-02T10:48:25;101374.28;;;28.17;34.07
59757;BME280;45631;51.962;5.974;2022-09-02T10:51:01;101377.44;;;28.28;34.31
59757;BME280;45631;51.962;5.974;2022-09-02T10:53:45;101384.09;;;28.45;33.81
59757;BME280;45631;51.962;5.974;2022-09-02T10:56:19;101376.69;;;28.74;33.54
59757;BME280;45631;51.962;5.974;2022-09-02T10:58:56;101364.78;;;28.82;32.99
59757;BME280;45631;51.962;5.974;2022-09-02T11:01:30;101365.38;;;29.11;32.96
59757;BME280;45631;51.962;5.974;2022-09-02T11:04:07;101364.09;;;29.40;32.93
59757;BME280;45631;51.962;5.974;2022-09-02T11:06:39;101354.50;;;29.44;31.47
59757;BME280;45631;51.962;5.974;2022-09-02T11:09:32;101352.63;;;29.45;31.46
59757;BME280;45631;51.962;5.974;2022-09-02T11:12:05;101349.75;;;29.33;31.82
59757;BME280;45631;51.962;5.974;2022-09-02T11:14:42;101357.78;;;29.60;31.36
59757;BME280;45631;51.962;5.974;2022-09-02T11:17:19;101352.38;;;29.53;30.94
59757;BME280;45631;51.962;5.974;2022-09-02T11:19:53;101366.63;;;29.35;30.98
59757;BME280;45631;51.962;5.974;2022-09-02T11:22:26;101353.72;;;29.37;31.05
59757;BME280;45631;51.962;5.974;2022-09-02T11:25:02;101362.84;;;29.49;31.23
59757;BME280;45631;51.962;5.974;2022-09-02T11:27:38;101348.88;;;29.46;30.66
59757;BME280;45631;51.962;5.974;2022-09-02T11:30:14;101358.09;;;29.11;30.15
59757;BME280;45631;51.962;5.974;2022-09-02T11:32:47;101354.09;;;29.41;29.88
59757;BME280;45631;51.962;5.974;2022-09-02T11:35:22;101334.13;;;29.22;28.50
59757;BME280;45631;51.962;5.974;2022-09-02T11:37:56;101343.53;;;29.12;29.46
59757;BME280;45631;51.962;5.974;2022-09-02T11:40:30;101327.44;;;29.38;29.41
59757;BME280;45631;51.962;5.974;2022-09-02T11:43:18;101328.78;;;29.74;29.02
59757;BME280;45631;51.962;5.974;2022-09-02T11:49:42;101327.72;;;29.68;28.21
59757;BME280;45631;51.962;5.974;2022-09-02T11:52:31;101329.16;;;29.05;28.98
59757;BME280;45631;51.962;5.974;2022-09-02T11:55:07;101320.78;;;29.40;28.77
59757;BME280;45631;51.962;5.974;2022-09-02T11:57:37;101327.13;;;29.66;28.83
59757;BME280;45631;51.962;5.974;2022-09-02T12:00:12;101324.31;;;29.93;27.39
59757;BME280;45631;51.962;5.974;2022-09-02T12:02:44;101317.75;;;29.68;27.25
59757;BME280;45631;51.962;5.974;2022-09-02T12:08:56;101321.50;;;29.67;28.02
59757;BME280;45631;51.962;5.974;2022-09-02T12:11:54;101311.63;;;29.34;27.92
59757;BME280;45631;51.962;5.974;2022-09-02T12:17:40;101301.88;;;29.72;28.34
59757;BME280;45631;51.962;5.974;2022-09-02T12:26:23;101300.53;;;29.95;27.32
59757;BME280;45631;51.962;5.974;2022-09-02T12:28:53;101294.22;;;29.62;27.46
59757;BME280;45631;51.962;5.974;2022-09-02T12:31:38;101290.13;;;29.46;27.63
59757;BME280;45631;51.962;5.974;2022-09-02T12:40:27;101281.75;;;30.76;25.94
59757;BME280;45631;51.962;5.974;2022-09-02T12:43:00;101279.28;;;30.93;26.64
59757;BME280;45631;51.962;5.974;2022-09-02T12:45:32;101273.09;;;30.85;25.53
59757;BME280;45631;51.962;5.974;2022-09-02T12:48:06;101282.59;;;30.51;26.30
59757;BME280;45631;51.962;5.974;2022-09-02T12:50:52;101269.63;;;31.15;24.98
59757;BME280;45631;51.962;5.974;2022-09-02T12:53:32;101274.75;;;31.61;24.50
59757;BME280;45631;51.962;5.974;2022-09-02T12:56:05;101260.50;;;31.77;25.50
59757;BME280;45631;51.962;5.974;2022-09-02T12:58:43;101267.41;;;31.43;24.88
59757;BME280;45631;51.962;5.974;2022-09-02T13:01:16;101258.44;;;31.61;24.57
59757;BME280;45631;51.962;5.974;2022-09-02T13:03:57;101263.31;;;31.71;24.76
59757;BME280;45631;51.962;5.974;2022-09-02T13:06:50;101258.13;;;31.69;24.47
59757;BME280;45631;51.962;5.974;2022-09-02T13:13:04;101255.59;;;31.00;25.56
59757;BME280;45631;51.962;5.974;2022-09-02T13:16:07;101252.59;;;30.90;26.31
59757;BME280;45631;51.962;5.974;2022-09-02T13:22:22;101251.41;;;31.23;25.68
59757;BME280;45631;51.962;5.974;2022-09-02T13:28:50;101247.94;;;31.64;24.93
59757;BME280;45631;51.962;5.974;2022-09-02T13:31:23;101243.34;;;31.65;24.84
59757;BME280;45631;51.962;5.974;2022-09-02T13:33:57;101250.16;;;31.37;24.85
59757;BME280;45631;51.962;5.974;2022-09-02T13:36:29;101246.00;;;30.60;24.54
59757;BME280;45631;51.962;5.974;2022-09-02T13:39:09;101247.28;;;30.58;24.94
59757;BME280;45631;51.962;5.974;2022-09-02T13:41:38;101251.94;;;30.50;25.02
59757;BME280;45631;51.962;5.974;2022-09-02T13:44:09;101245.19;;;30.97;25.14
59757;BME280;45631;51.962;5.974;2022-09-02T13:46:45;101243.69;;;30.64;24.99
59757;BME280;45631;51.962;5.974;2022-09-02T13:49:22;101243.75;;;30.76;25.83
59757;BME280;45631;51.962;5.974;2022-09-02T13:51:53;101239.09;;;30.39;25.68